Time;durP1;ratioP1;P1;durP2;ratioP2;P2;SDS_P1;SDS_P2;PMS_P1;PMS_P2;Temp;Humidity;BMP_temperature;BMP_pressure;BME280_temperature;BME280_humidity;BME280_pressure;Samples;Min_cycle;Max_cycle;Signal;HPM_P1;HPM_P2
2023/09/02 00:02:23;;;;;;;7.72;1.60;;;16.60;99.90;;;;;;5089465;28;20048;-84
2023/09/02 00:04:49;;;;;;;4.82;1.52;;;16.60;99.90;;;;;;5089826;28;20027;-83
2023/09/02 00:07:14;;;;;;;5.15;1.58;;;16.50;99.90;;;;;;5089566;28;20100;-84
2023/09/02 00:09:40;;;;;;;4.00;1.42;;;16.50;99.90;;;;;;5087931;28;20392;-84
2023/09/02 00:12:09;;;;;;;3.95;1.48;;;16.50;99.90;;;;;;5089104;28;20028;-82
2023/09/02 00:14:34;;;;;;;7.60;1.85;;;16.50;99.90;;;;;;5089145;28;20091;-84
2023/09/02 00:17:00;;;;;;;5.32;1.58;;;16.50;99.90;;;;;;5089546;28;20067;-83
2023/09/02 00:19:25;;;;;;;10.00;1.48;;;16.50;99.90;;;;;;5089517;28;20031;-83
2023/09/02 00:21:52;;;;;;;6.18;2.67;;;16.40;99.90;;;;;;5089500;28;20536;-82
2023/09/02 00:24:17;;;;;;;3.03;1.20;;;16.40;99.90;;;;;;5091813;28;20036;-84
2023/09/02 00:26:43;;;;;;;3.78;1.42;;;16.30;99.90;;;;;;5093230;28;20412;-83
2023/09/02 00:29:09;;;;;;;7.43;1.90;;;16.30;99.90;;;;;;5093238;28;20028;-83
2023/09/02 00:31:34;;;;;;;4.25;1.63;;;16.20;99.90;;;;;;5093357;28;20092;-83
2023/09/02 00:34:00;;;;;;;6.38;1.38;;;16.20;99.90;;;;;;5093210;28;20497;-83
2023/09/02 00:36:27;;;;;;;3.58;2.17;;;16.20;99.90;;;;;;5091662;28;20622;-84
2023/09/02 00:38:53;;;;;;;5.90;1.85;;;16.20;99.90;;;;;;5091664;28;20400;-83
2023/09/02 00:41:29;;;;;;;4.85;1.65;;;16.10;99.90;;;;;;5091419;28;20035;-83
2023/09/02 00:43:56;;;;;;;4.00;1.25;;;16.10;99.90;;;;;;5092941;28;20024;-84
2023/09/02 00:46:23;;;;;;;4.35;1.38;;;16.10;99.90;;;;;;5092044;28;20040;-83
2023/09/02 00:48:49;;;;;;;6.03;1.20;;;16.00;99.90;;;;;;5092071;28;20030;-83
2023/09/02 00:51:15;;;;;;;2.53;1.20;;;16.10;99.90;;;;;;5092706;28;20098;-84
2023/09/02 00:53:40;;;;;;;3.88;1.10;;;16.00;99.90;;;;;;5091402;28;20030;-84
2023/09/02 00:56:07;;;;;;;2.03;1.23;;;16.00;99.90;;;;;;5092655;28;20067;-84
2023/09/02 00:58:33;;;;;;;3.03;1.42;;;16.00;99.90;;;;;;5092730;28;20495;-84
2023/09/02 01:01:02;;;;;;;7.57;1.67;;;15.90;99.90;;;;;;5092728;28;20561;-83
2023/09/02 01:03:28;;;;;;;3.65;1.60;;;16.00;99.90;;;;;;5092315;28;20042;-83
2023/09/02 01:05:54;;;;;;;5.05;1.15;;;16.00;99.90;;;;;;5090733;28;20111;-84
2023/09/02 01:08:19;;;;;;;8.68;1.30;;;16.00;99.90;;;;;;5090959;28;20046;-84
2023/09/02 01:10:47;;;;;;;4.05;1.40;;;16.00;99.90;;;;;;5091024;28;20496;-82
2023/09/02 01:13:13;;;;;;;4.20;1.40;;;15.90;99.90;;;;;;5090867;28;20119;-82
2023/09/02 01:15:38;;;;;;;3.75;1.58;;;16.00;99.90;;;;;;5090880;28;20596;-84
2023/09/02 01:18:04;;;;;;;2.70;1.27;;;15.90;99.90;;;;;;5092211;28;20028;-84
2023/09/02 01:20:52;;;;;;;3.35;1.40;;;15.90;99.90;;;;;;5092250;28;20790;-83
2023/09/02 01:23:21;;;;;;;3.95;1.38;;;15.90;99.90;;;;;;5092120;28;20039;-84
2023/09/02 01:26:01;;;;;;;4.82;1.33;;;15.90;99.90;;;;;;5090913;28;20506;-80
2023/09/02 01:28:31;;;;;;;3.38;1.40;;;15.90;99.90;;;;;;5092169;28;20381;-83
2023/09/02 01:31:00;;;;;;;2.22;1.17;;;15.90;99.90;;;;;;5091935;28;20105;-83
2023/09/02 01:33:27;;;;;;;8.00;1.80;;;15.90;99.90;;;;;;5090260;28;20036;-82
2023/09/02 01:35:54;;;;;;;2.10;1.23;;;15.90;99.90;;;;;;5091558;28;20599;-81
2023/09/02 01:38:24;;;;;;;4.32;1.20;;;15.80;99.90;;;;;;5091984;28;20027;-80
2023/09/02 01:40:53;;;;;;;4.15;1.33;;;15.80;99.90;;;;;;5091763;28;20053;-82
2023/09/02 01:43:20;;;;;;;7.30;1.38;;;15.80;99.90;;;;;;5091760;28;20032;-81
2023/09/02 01:45:47;;;;;;;2.78;1.13;;;15.80;99.90;;;;;;5091502;28;20085;-85
2023/09/02 01:48:13;;;;;;;5.65;1.35;;;15.70;99.90;;;;;;5090354;28;20370;-83
2023/09/02 01:50:40;;;;;;;3.67;1.20;;;15.70;99.90;;;;;;5090531;28;20020;-84
2023/09/02 01:53:08;;;;;;;5.28;1.67;;;15.70;99.90;;;;;;5091925;28;20484;-83
2023/09/02 01:55:35;;;;;;;3.17;1.25;;;15.70;99.90;;;;;;5091530;28;20024;-81
2023/09/02 01:58:01;;;;;;;3.92;1.45;;;15.70;99.90;;;;;;5090132;28;20073;-83
2023/09/02 02:00:27;;;;;;;3.67;1.30;;;15.70;99.90;;;;;;5090183;28;20020;-83
2023/09/02 02:02:55;;;;;;;2.45;1.15;;;15.70;99.90;;;;;;5090029;28;20039;-84
2023/09/02 02:05:33;;;;;;;7.00;1.35;;;15.70;99.90;;;;;;5089892;28;20024;-78
2023/09/02 02:08:09;;;;;;;2.80;1.25;;;15.70;99.90;;;;;;5090200;28;20032;-84
2023/09/02 02:10:36;;;;;;;1.83;1.05;;;15.70;99.90;;;;;;5091435;28;20024;-83
2023/09/02 02:13:02;;;;;;;1.98;1.20;;;15.70;99.90;;;;;;5091459;28;20647;-83
2023/09/02 02:15:28;;;;;;;7.50;1.30;;;15.70;99.90;;;;;;5089613;28;20048;-84
2023/09/02 02:17:53;;;;;;;4.88;1.35;;;15.70;99.90;;;;;;5091024;28;20027;-84
2023/09/02 02:20:21;;;;;;;3.78;1.80;;;15.70;99.90;;;;;;5089425;28;20107;-84
2023/09/02 02:22:46;;;;;;;4.88;1.75;;;15.70;99.90;;;;;;5091306;28;20035;-83
2023/09/02 02:25:12;;;;;;;3.30;1.70;;;15.70;99.90;;;;;;5091062;28;20028;-81
2023/09/02 02:27:38;;;;;;;5.68;1.75;;;15.70;99.90;;;;;;5089631;28;20036;-80
2023/09/02 02:30:04;;;;;;;3.05;1.20;;;15.80;99.90;;;;;;5089314;28;20112;-85
2023/09/02 02:32:29;;;;;;;3.88;1.70;;;15.70;99.90;;;;;;5090370;28;20035;-84
2023/09/02 02:34:55;;;;;;;4.80;1.10;;;15.70;99.90;;;;;;5090658;28;20077;-80
2023/09/02 02:37:21;;;;;;;5.43;2.08;;;15.70;99.90;;;;;;5090186;28;20032;-81
2023/09/02 02:39:46;;;;;;;3.38;1.42;;;15.70;99.90;;;;;;5090831;28;20028;-85
2023/09/02 02:42:14;;;;;;;8.85;1.40;;;15.70;99.90;;;;;;5090677;28;20078;-82
2023/09/02 02:44:40;;;;;;;5.47;1.50;;;15.70;99.90;;;;;;5089928;28;20031;-82
2023/09/02 02:47:06;;;;;;;3.45;1.42;;;15.70;99.90;;;;;;5089258;28;20028;-83
2023/09/02 02:49:32;;;;;;;4.20;1.50;;;15.60;99.90;;;;;;5092561;28;20038;-82
2023/09/02 02:52:01;;;;;;;2.10;1.33;;;15.60;99.90;;;;;;5088777;28;20024;-83
2023/09/02 02:54:26;;;;;;;3.70;1.50;;;15.60;99.90;;;;;;5090475;28;20028;-83
2023/09/02 02:56:52;;;;;;;1.90;1.10;;;15.60;99.90;;;;;;5089046;28;20028;-82
2023/09/02 02:59:18;;;;;;;2.22;1.30;;;15.60;99.90;;;;;;5090862;28;20445;-82
2023/09/02 03:01:43;;;;;;;2.55;1.23;;;15.60;99.90;;;;;;5089097;28;20445;-83
2023/09/02 03:04:09;;;;;;;4.90;1.90;;;15.70;99.90;;;;;;5090291;28;20054;-83
2023/09/02 03:06:35;;;;;;;3.70;1.65;;;15.70;99.90;;;;;;5090120;28;20069;-82
2023/09/02 03:09:00;;;;;;;2.28;1.13;;;15.70;99.90;;;;;;5090424;28;20055;-84
2023/09/02 03:11:26;;;;;;;3.47;1.77;;;15.80;99.90;;;;;;5088601;28;20074;-80
2023/09/02 03:13:52;;;;;;;2.67;1.50;;;15.80;99.90;;;;;;5088745;28;20035;-79
2023/09/02 03:16:17;;;;;;;7.25;2.03;;;15.90;99.90;;;;;;5090070;28;20594;-82
2023/09/02 03:18:43;;;;;;;5.05;1.20;;;15.90;99.90;;;;;;5090154;28;20024;-80
2023/09/02 03:21:09;;;;;;;6.65;1.38;;;15.90;99.90;;;;;;5090213;28;20028;-82
2023/09/02 03:23:35;;;;;;;7.05;1.67;;;16.00;99.90;;;;;;5089835;28;20111;-83
2023/09/02 03:26:11;;;;;;;3.42;1.45;;;16.00;99.90;;;;;;5089737;28;20028;-83
2023/09/02 03:28:37;;;;;;;2.80;0.98;;;16.10;99.90;;;;;;5089905;28;20032;-84
2023/09/02 03:31:09;;;;;;;3.03;1.38;;;16.20;99.90;;;;;;5088829;28;20034;-82
2023/09/02 03:33:36;;;;;;;4.50;1.27;;;16.20;99.90;;;;;;5089689;28;20039;-83
2023/09/02 03:36:02;;;;;;;6.78;1.58;;;16.20;99.90;;;;;;5089909;28;20067;-82
2023/09/02 03:38:28;;;;;;;2.55;1.20;;;16.30;99.90;;;;;;5089860;28;20031;-82
2023/09/02 03:40:54;;;;;;;2.53;1.25;;;16.30;99.90;;;;;;5089682;28;20039;-83
2023/09/02 03:43:20;;;;;;;3.70;1.50;;;16.30;99.90;;;;;;5089761;28;20036;-84
2023/09/02 03:45:49;;;;;;;3.58;1.30;;;16.40;99.90;;;;;;5089498;28;20036;-83
2023/09/02 03:48:19;;;;;;;2.38;1.40;;;16.40;99.90;;;;;;5089700;28;20153;-80
2023/09/02 03:51:11;;;;;;;2.70;1.20;;;16.40;99.90;;;;;;5089826;28;20099;-83
2023/09/02 03:53:38;;;;;;;4.30;1.77;;;16.50;99.90;;;;;;5088343;28;20043;-80
2023/09/02 03:56:04;;;;;;;4.93;1.73;;;16.40;99.90;;;;;;5089063;28;20031;-82
2023/09/02 03:58:30;;;;;;;7.55;1.48;;;16.40;99.90;;;;;;5092472;28;20032;-83
2023/09/02 04:00:57;;;;;;;3.33;1.80;;;16.40;99.90;;;;;;5094483;28;20469;-83
2023/09/02 04:03:23;;;;;;;2.55;1.20;;;16.30;99.90;;;;;;5094055;28;20032;-84
2023/09/02 04:05:49;;;;;;;4.75;1.75;;;16.20;99.90;;;;;;5092074;28;20123;-83
2023/09/02 04:08:21;;;;;;;5.38;1.25;;;16.20;99.90;;;;;;5093471;28;20099;-82
2023/09/02 04:10:55;;;;;;;5.07;1.60;;;16.10;99.90;;;;;;5092277;28;20024;-83
2023/09/02 04:13:25;;;;;;;2.90;1.63;;;16.10;99.90;;;;;;5093264;28;20044;-84
2023/09/02 04:15:53;;;;;;;2.97;1.50;;;16.10;99.90;;;;;;5091883;28;20055;-83
2023/09/02 04:18:19;;;;;;;5.75;1.92;;;16.20;99.90;;;;;;5092311;28;20043;-83
2023/09/02 04:20:45;;;;;;;5.50;1.50;;;16.10;99.90;;;;;;5092058;28;20024;-83
2023/09/02 04:23:11;;;;;;;3.08;1.48;;;16.10;99.90;;;;;;5093204;28;20077;-83
2023/09/02 04:25:53;;;;;;;5.05;1.33;;;16.10;99.90;;;;;;5092029;28;20035;-83
2023/09/02 04:28:19;;;;;;;3.53;1.33;;;16.10;99.90;;;;;;5092050;28;20043;-83
2023/09/02 04:30:46;;;;;;;3.60;1.40;;;16.10;99.90;;;;;;5091738;28;20162;-81
2023/09/02 04:33:12;;;;;;;2.95;1.20;;;16.10;99.90;;;;;;5092073;28;20043;-83
2023/09/02 04:35:39;;;;;;;8.27;1.63;;;16.10;99.90;;;;;;5091944;28;20031;-84
2023/09/02 04:38:06;;;;;;;4.80;2.00;;;16.00;99.90;;;;;;5093019;28;20040;-79
2023/09/02 04:40:42;;;;;;;3.00;1.98;;;16.10;99.90;;;;;;5093083;28;20028;-82
2023/09/02 04:43:09;;;;;;;8.23;2.35;;;16.10;99.90;;;;;;5092884;28;20633;-83
2023/09/02 04:45:37;;;;;;;7.32;2.15;;;16.20;99.90;;;;;;5092649;28;20039;-83
2023/09/02 04:48:03;;;;;;;6.70;1.70;;;16.30;99.90;;;;;;5091601;28;20507;-82
2023/09/02 04:50:30;;;;;;;6.03;1.60;;;16.50;99.90;;;;;;5092979;28;20108;-83
2023/09/02 04:52:57;;;;;;;2.35;1.25;;;16.60;99.90;;;;;;5091390;28;20030;-82
2023/09/02 04:55:24;;;;;;;5.35;2.40;;;16.70;99.90;;;;;;5092317;28;20486;-83
2023/09/02 04:57:51;;;;;;;4.57;1.20;;;16.90;99.90;;;;;;5092577;28;20060;-82
2023/09/02 05:00:18;;;;;;;2.80;1.42;;;17.00;99.90;;;;;;5091136;28;20555;-82
2023/09/02 05:02:46;;;;;;;1.63;0.90;;;17.30;99.90;;;;;;5090887;28;20040;-82
2023/09/02 05:05:20;;;;;;;3.00;1.17;;;17.60;99.90;;;;;;5091165;28;20030;-82
2023/09/02 05:07:46;;;;;;;4.78;1.83;;;17.90;99.90;;;;;;5091272;28;20040;-82
2023/09/02 05:10:12;;;;;;;2.65;1.50;;;18.10;99.90;;;;;;5092124;28;20024;-81
2023/09/02 05:12:38;;;;;;;2.92;1.00;;;18.50;99.90;;;;;;5092211;28;20093;-77
2023/09/02 05:15:05;;;;;;;3.83;1.17;;;18.80;99.90;;;;;;5091893;28;20044;-81
2023/09/02 05:17:32;;;;;;;4.45;1.00;;;19.20;99.90;;;;;;5092127;28;20056;-81
2023/09/02 05:19:58;;;;;;;4.88;1.30;;;19.40;99.90;;;;;;5092109;28;20028;-80
2023/09/02 05:22:24;;;;;;;3.13;1.40;;;19.50;99.90;;;;;;5090712;28;20488;-80
2023/09/02 05:24:49;;;;;;;6.40;2.95;;;19.90;99.90;;;;;;5090757;28;20119;-80
2023/09/02 05:27:15;;;;;;;3.60;1.38;;;20.30;99.90;;;;;;5091804;28;20601;-80
2023/09/02 05:29:40;;;;;;;3.92;1.27;;;20.60;99.90;;;;;;5090420;28;20028;-80
2023/09/02 05:32:09;;;;;;;5.03;1.88;;;20.90;99.90;;;;;;5090537;28;20122;-79
2023/09/02 05:34:35;;;;;;;4.80;1.80;;;21.00;99.90;;;;;;5092009;28;20059;-80
2023/09/02 05:37:02;;;;;;;2.83;1.35;;;21.40;99.90;;;;;;5090720;28;20435;-80
2023/09/02 05:39:28;;;;;;;3.22;1.45;;;21.80;99.90;;;;;;5090213;28;20437;-80
2023/09/02 05:41:53;;;;;;;4.57;1.67;;;22.30;99.90;;;;;;5090137;28;20083;-80
2023/09/02 05:44:19;;;;;;;3.63;2.05;;;22.80;99.90;;;;;;5091982;28;20496;-79
2023/09/02 05:46:45;;;;;;;4.90;1.73;;;23.20;99.70;;;;;;5092535;28;20028;-80
2023/09/02 05:49:12;;;;;;;9.20;2.13;;;23.40;98.80;;;;;;5091293;28;20032;-80
2023/09/02 05:51:38;;;;;;;2.92;1.70;;;23.50;97.40;;;;;;5089938;28;20026;-81
2023/09/02 05:54:04;;;;;;;3.63;1.45;;;23.70;96.10;;;;;;5090240;28;20032;-81
2023/09/02 05:56:31;;;;;;;5.35;2.30;;;23.90;95.10;;;;;;5089960;28;20092;-80
2023/09/02 05:58:57;;;;;;;6.55;2.53;;;23.60;93.50;;;;;;5089887;28;20024;-80
2023/09/02 06:01:23;;;;;;;4.85;2.47;;;23.40;93.20;;;;;;5089909;28;20065;-81
2023/09/02 06:03:49;;;;;;;6.63;2.47;;;23.00;93.50;;;;;;5091156;28;20040;-80
2023/09/02 06:06:14;;;;;;;5.38;2.47;;;22.70;95.00;;;;;;5089439;28;20054;-80
2023/09/02 06:08:40;;;;;;;3.78;2.22;;;22.60;95.60;;;;;;5089823;28;20589;-80
2023/09/02 06:11:06;;;;;;;6.97;2.10;;;22.50;96.30;;;;;;5089724;28;20077;-80
2023/09/02 06:13:32;;;;;;;5.20;2.45;;;22.90;96.10;;;;;;5090954;28;20035;-80
2023/09/02 06:16:03;;;;;;;11.90;2.00;;;23.50;95.00;;;;;;5088853;28;20056;-80
2023/09/02 06:18:30;;;;;;;7.78;2.70;;;24.30;92.40;;;;;;5090778;28;20024;-80
2023/09/02 06:20:56;;;;;;;4.85;2.75;;;25.00;90.70;;;;;;5088942;28;20027;-80
2023/09/02 06:23:25;;;;;;;3.95;2.15;;;25.60;86.30;;;;;;5090618;28;20078;-80
2023/09/02 06:26:00;;;;;;;5.20;2.30;;;25.90;83.40;;;;;;5089232;28;20534;-80
2023/09/02 06:28:28;;;;;;;6.80;2.33;;;26.40;80.20;;;;;;5089143;28;20059;-80
2023/09/02 06:30:54;;;;;;;7.82;2.03;;;26.80;79.40;;;;;;5090449;28;20020;-80
2023/09/02 06:33:22;;;;;;;8.00;2.38;;;27.30;77.10;;;;;;5090568;28;20050;-80
2023/09/02 06:35:51;;;;;;;8.25;2.33;;;27.80;73.40;;;;;;5088984;28;20030;-81
2023/09/02 06:38:17;;;;;;;2.80;2.03;;;28.30;70.20;;;;;;5090441;28;20515;-80
2023/09/02 06:40:43;;;;;;;7.28;2.22;;;28.50;68.60;;;;;;5090373;28;20048;-80
2023/09/02 06:43:09;;;;;;;5.63;2.08;;;28.90;66.40;;;;;;5090253;28;20039;-79
2023/09/02 06:45:35;;;;;;;6.90;2.92;;;29.00;65.80;;;;;;5090200;28;20515;-79
2023/09/02 06:48:01;;;;;;;5.75;2.13;;;29.20;64.50;;;;;;5088791;28;20039;-80
2023/09/02 06:50:29;;;;;;;3.53;1.90;;;29.20;62.90;;;;;;5088984;28;20024;-80
2023/09/02 06:52:55;;;;;;;2.67;1.90;;;29.60;62.00;;;;;;5090295;28;20051;-81
2023/09/02 06:55:21;;;;;;;3.08;1.85;;;29.70;61.40;;;;;;5090025;28;20028;-80
2023/09/02 06:57:46;;;;;;;4.38;1.80;;;29.60;60.40;;;;;;5090211;28;20028;-79
2023/09/02 07:00:12;;;;;;;8.90;2.38;;;29.10;60.60;;;;;;5088842;28;20130;-80
2023/09/02 07:02:38;;;;;;;6.18;1.83;;;29.10;62.20;;;;;;5089950;28;20036;-79
2023/09/02 07:05:04;;;;;;;4.22;1.73;;;28.90;63.10;;;;;;5088580;28;20028;-80
2023/09/02 07:07:30;;;;;;;4.10;1.60;;;28.50;62.70;;;;;;5089941;28;20089;-81
2023/09/02 07:09:56;;;;;;;1.90;1.17;;;28.00;62.60;;;;;;5089238;28;20028;-79
2023/09/02 07:12:22;;;;;;;3.35;1.70;;;27.90;62.10;;;;;;5090519;28;20020;-80
2023/09/02 07:14:48;;;;;;;2.17;1.17;;;28.00;61.20;;;;;;5089553;28;20071;-80
2023/09/02 07:17:13;;;;;;;2.03;1.38;;;28.00;59.50;;;;;;5088604;28;20028;-80
2023/09/02 07:19:39;;;;;;;3.38;1.05;;;27.70;59.40;;;;;;5088308;28;20039;-80
2023/09/02 07:22:04;;;;;;;2.85;1.45;;;28.10;59.80;;;;;;5088395;28;20051;-80
2023/09/02 07:24:30;;;;;;;3.15;1.17;;;28.80;60.00;;;;;;5088352;28;20035;-80
2023/09/02 07:26:56;;;;;;;2.85;1.00;;;29.50;57.60;;;;;;5089540;28;20039;-80
2023/09/02 07:29:21;;;;;;;3.70;1.00;;;30.30;56.20;;;;;;5088336;28;20028;-80
2023/09/02 07:31:47;;;;;;;3.13;1.20;;;31.00;54.60;;;;;;5087718;28;20613;-80
2023/09/02 07:34:13;;;;;;;4.65;1.10;;;31.50;53.00;;;;;;5089542;28;20028;-80
2023/09/02 07:36:38;;;;;;;6.28;1.38;;;32.00;52.30;;;;;;5089483;28;20031;-81
2023/09/02 07:39:04;;;;;;;5.75;1.20;;;32.60;50.80;;;;;;5089482;28;20053;-81
2023/09/02 07:41:30;;;;;;;2.08;1.27;;;33.00;48.90;;;;;;5088501;28;20028;-81
2023/09/02 07:43:56;;;;;;;2.83;1.20;;;32.90;48.20;;;;;;5089390;28;20028;-80
2023/09/02 07:46:23;;;;;;;6.28;1.27;;;33.10;48.00;;;;;;5088074;28;20438;-80
2023/09/02 07:48:50;;;;;;;4.97;1.23;;;33.60;46.80;;;;;;5088190;28;20546;-79
2023/09/02 07:51:17;;;;;;;3.17;1.38;;;34.10;46.30;;;;;;5087880;28;20028;-82
2023/09/02 07:53:43;;;;;;;1.90;1.10;;;34.40;45.40;;;;;;5088043;28;20122;-80
2023/09/02 07:56:09;;;;;;;2.78;1.30;;;34.60;44.10;;;;;;5088129;28;20162;-80
2023/09/02 07:58:34;;;;;;;3.33;1.17;;;34.60;44.20;;;;;;5087973;28;20103;-80
2023/09/02 08:01:00;;;;;;;2.60;1.15;;;34.80;44.70;;;;;;5088018;28;20032;-79
2023/09/02 08:03:26;;;;;;;3.50;1.10;;;35.10;43.80;;;;;;5089205;28;20043;-80
2023/09/02 08:05:52;;;;;;;4.53;1.50;;;35.50;42.00;;;;;;5089193;28;20032;-79
2023/09/02 08:08:17;;;;;;;3.92;1.02;;;35.40;41.60;;;;;;5089308;28;20099;-80
2023/09/02 08:10:43;;;;;;;6.07;1.25;;;35.10;41.10;;;;;;5089170;28;20117;-80
2023/09/02 08:13:09;;;;;;;2.33;1.15;;;35.10;42.30;;;;;;5089298;28;20030;-81
2023/09/02 08:15:38;;;;;;;2.47;1.00;;;35.00;42.00;;;;;;5088962;28;20056;-80
2023/09/02 08:18:04;;;;;;;3.15;1.08;;;34.70;41.70;;;;;;5087889;28;20492;-81
2023/09/02 08:20:30;;;;;;;1.83;1.05;;;34.10;42.60;;;;;;5089225;28;20022;-79
2023/09/02 08:22:57;;;;;;;1.33;0.90;;;33.30;43.80;;;;;;5088866;28;20496;-81
2023/09/02 08:25:22;;;;;;;1.63;1.08;;;32.20;45.50;;;;;;5089123;28;20020;-80
2023/09/02 08:27:48;;;;;;;2.35;0.80;;;31.80;46.30;;;;;;5087788;28;20089;-80
2023/09/02 08:30:14;;;;;;;2.00;0.80;;;31.50;47.90;;;;;;5089020;28;20491;-81
2023/09/02 08:32:40;;;;;;;3.83;1.05;;;31.20;48.20;;;;;;5087722;28;20031;-81
2023/09/02 08:35:06;;;;;;;6.22;1.38;;;30.80;47.90;;;;;;5089056;28;20032;-79
2023/09/02 08:37:34;;;;;;;1.63;0.90;;;30.80;49.20;;;;;;5087661;28;20023;-80
2023/09/02 08:40:00;;;;;;;3.83;1.00;;;31.60;48.60;;;;;;5089091;28;20017;-79
2023/09/02 08:42:27;;;;;;;2.95;1.00;;;32.10;47.50;;;;;;5088630;28;20120;-80
2023/09/02 08:44:55;;;;;;;4.60;0.90;;;32.00;47.40;;;;;;5092552;28;20047;-82
2023/09/02 08:47:21;;;;;;;2.72;1.10;;;31.90;46.80;;;;;;5092791;28;20035;-82
2023/09/02 08:49:49;;;;;;;2.05;1.10;;;31.50;48.00;;;;;;5092622;28;20020;-82
2023/09/02 08:52:15;;;;;;;2.78;0.90;;;31.40;48.40;;;;;;5092562;28;20114;-82
2023/09/02 08:54:42;;;;;;;3.00;1.00;;;31.80;47.90;;;;;;5091093;28;20533;-81
2023/09/02 08:57:12;;;;;;;3.70;1.00;;;32.00;47.10;;;;;;5092333;28;20020;-80
2023/09/02 08:59:38;;;;;;;2.78;1.10;;;32.60;46.50;;;;;;5092239;28;20035;-80
2023/09/02 09:02:05;;;;;;;5.32;1.17;;;33.10;45.90;;;;;;5091041;28;20036;-80
2023/09/02 09:04:36;;;;;;;3.15;0.80;;;33.60;44.60;;;;;;5092276;28;20035;-79
2023/09/02 09:07:04;;;;;;;3.53;0.93;;;34.10;43.60;;;;;;5092590;28;20024;-81
2023/09/02 09:09:35;;;;;;;3.78;1.08;;;34.40;43.80;;;;;;5092212;28;20043;-83
2023/09/02 09:12:02;;;;;;;1.95;0.90;;;34.40;43.30;;;;;;5092063;28;20027;-79
2023/09/02 09:14:31;;;;;;;2.92;1.10;;;34.00;43.90;;;;;;5091956;28;20480;-79
2023/09/02 09:16:59;;;;;;;2.30;1.23;;;33.90;43.60;;;;;;5091974;28;20024;-81
2023/09/02 09:19:27;;;;;;;4.82;0.85;;;34.20;43.20;;;;;;5090696;28;20118;-80
2023/09/02 09:21:54;;;;;;;3.67;0.95;;;34.60;42.80;;;;;;5091750;28;20071;-81
2023/09/02 09:24:20;;;;;;;3.50;0.93;;;34.90;42.90;;;;;;5090611;28;20035;-79
2023/09/02 09:26:47;;;;;;;2.72;1.00;;;35.20;41.40;;;;;;5091789;28;20028;-80
2023/09/02 09:29:17;;;;;;;6.38;1.00;;;35.40;40.70;;;;;;5091693;28;20027;-81
2023/09/02 09:31:44;;;;;;;2.67;0.90;;;35.70;40.10;;;;;;5091746;28;20032;-80
2023/09/02 09:34:10;;;;;;;1.40;0.82;;;35.80;40.20;;;;;;5091649;28;20106;-81
2023/09/02 09:36:36;;;;;;;3.63;1.10;;;35.70;40.60;;;;;;5090187;28;20054;-79
2023/09/02 09:39:08;;;;;;;2.97;0.85;;;36.00;40.40;;;;;;5090308;28;20747;-81
2023/09/02 09:41:35;;;;;;;1.70;0.90;;;36.30;39.50;;;;;;5090138;28;20024;-81
2023/09/02 09:44:08;;;;;;;2.83;0.80;;;36.40;39.50;;;;;;5090111;28;20509;-81
2023/09/02 09:46:53;;;;;;;1.92;0.80;;;36.20;40.10;;;;;;5090069;28;20024;-79
2023/09/02 09:49:32;;;;;;;4.32;0.80;;;36.10;40.30;;;;;;5090187;28;20124;-81
2023/09/02 09:52:00;;;;;;;5.18;0.80;;;35.40;40.90;;;;;;5091324;28;20021;-81
2023/09/02 09:54:36;;;;;;;1.80;0.70;;;34.60;41.40;;;;;;5089542;28;20704;-81
2023/09/02 09:57:02;;;;;;;6.18;0.73;;;33.70;42.60;;;;;;5091378;28;20017;-80
2023/09/02 09:59:27;;;;;;;25.52;5.85;;;32.80;45.00;;;;;;5090815;28;20081;-82
2023/09/02 10:01:53;;;;;;;8.32;1.55;;;32.30;45.50;;;;;;5089703;28;20090;-80
2023/09/02 10:04:20;;;;;;;3.42;0.88;;;31.70;46.30;;;;;;5091127;28;20031;-78
2023/09/02 10:06:47;;;;;;;1.75;1.00;;;31.40;47.30;;;;;;5089810;28;20068;-79
2023/09/02 10:09:13;;;;;;;1.70;0.80;;;31.20;48.00;;;;;;5089672;28;20035;-77
2023/09/02 10:11:39;;;;;;;10.55;1.08;;;31.10;48.20;;;;;;5091043;28;20024;-79
2023/09/02 10:14:05;;;;;;;7.95;1.10;;;31.00;48.90;;;;;;5089791;28;20571;-77
2023/09/02 10:16:34;;;;;;;4.88;1.55;;;31.00;49.30;;;;;;5089170;28;20438;-78
2023/09/02 10:19:03;;;;;;;6.18;0.95;;;30.90;49.90;;;;;;5091040;28;20047;-77
2023/09/02 10:21:29;;;;;;;5.20;1.70;;;31.20;50.20;;;;;;5089810;28;20122;-80
2023/09/02 10:23:59;;;;;;;17.02;1.40;;;31.60;49.30;;;;;;5090538;28;20043;-81
2023/09/02 10:26:43;;;;;;;3.58;0.95;;;31.80;49.20;;;;;;5090374;28;20062;-80
2023/09/02 10:29:12;;;;;;;11.77;1.45;;;31.90;48.80;;;;;;5090637;28;20054;-78
2023/09/02 10:31:46;;;;;;;18.52;1.30;;;32.00;49.00;;;;;;5089106;28;20032;-79
2023/09/02 10:34:25;;;;;;;8.10;3.35;;;32.00;48.70;;;;;;5089247;28;20117;-80
2023/09/02 10:36:56;;;;;;;4.60;1.00;;;31.80;49.50;;;;;;5089164;28;20119;-79
2023/09/02 10:39:40;;;;;;;1.02;0.75;;;31.60;48.60;;;;;;5090276;28;20030;-80
2023/09/02 10:42:08;;;;;;;2.58;0.95;;;31.30;49.70;;;;;;5090267;28;20038;-79
2023/09/02 10:44:34;;;;;;;2.25;0.80;;;31.20;50.00;;;;;;5090270;28;20532;-79
2023/09/02 10:47:01;;;;;;;3.38;1.05;;;31.10;49.90;;;;;;5088932;28;20686;-80
2023/09/02 10:49:28;;;;;;;2.92;1.02;;;30.80;50.00;;;;;;5090408;28;20035;-79
2023/09/02 10:51:54;;;;;;;1.95;1.02;;;30.50;49.80;;;;;;5090109;28;20123;-79
2023/09/02 10:54:20;;;;;;;4.97;0.98;;;30.40;50.40;;;;;;5090113;28;20024;-82
2023/09/02 10:56:45;;;;;;;3.45;0.80;;;30.30;51.60;;;;;;5090204;28;20036;-78
2023/09/02 10:59:27;;;;;;;4.82;2.67;;;30.30;52.20;;;;;;5088593;28;20032;-79
2023/09/02 11:01:53;;;;;;;4.53;1.30;;;30.30;52.00;;;;;;5088699;28;20032;-79
2023/09/02 11:04:44;;;;;;;4.97;1.00;;;30.50;51.70;;;;;;5088710;28;20412;-82
2023/09/02 11:07:24;;;;;;;3.22;1.35;;;30.60;51.40;;;;;;5081698;28;20029;-81
2023/09/02 11:09:57;;;;;;;1.85;0.80;;;30.70;51.70;;;;;;5088538;28;20034;-79
2023/09/02 11:12:24;;;;;;;3.42;0.98;;;30.60;51.50;;;;;;5088894;28;20039;-81
2023/09/02 11:15:08;;;;;;;2.75;0.80;;;30.40;51.00;;;;;;5089749;28;20328;-81
2023/09/02 11:17:38;;;;;;;2.85;1.00;;;30.20;51.50;;;;;;5088913;28;20384;-81
2023/09/02 11:20:08;;;;;;;5.50;0.93;;;29.90;52.50;;;;;;5089916;28;20088;-82
2023/09/02 11:22:54;;;;;;;3.97;0.82;;;29.80;53.90;;;;;;5088361;28;20435;-81
2023/09/02 11:25:30;;;;;;;2.00;0.70;;;29.80;54.30;;;;;;5089720;28;20024;-81
2023/09/02 11:27:56;;;;;;;2.35;0.70;;;29.70;54.00;;;;;;5089826;28;20497;-81
2023/09/02 11:30:23;;;;;;;2.35;0.73;;;29.60;54.20;;;;;;5088423;28;20036;-82
2023/09/02 11:32:50;;;;;;;1.23;0.60;;;29.60;53.70;;;;;;5089808;28;20103;-82
2023/09/02 11:35:23;;;;;;;1.63;0.80;;;29.60;54.60;;;;;;5089397;28;20082;-81
2023/09/02 11:37:49;;;;;;;4.40;1.30;;;29.60;54.30;;;;;;5089587;28;20031;-81
2023/09/02 11:40:16;;;;;;;1.85;1.00;;;29.70;55.10;;;;;;5088348;28;20024;-81
2023/09/02 11:43:08;;;;;;;3.97;0.93;;;29.70;54.50;;;;;;5089534;28;20505;-80
2023/09/02 11:45:38;;;;;;;3.28;1.00;;;29.70;54.90;;;;;;5088190;28;20467;-81
2023/09/02 11:48:06;;;;;;;4.13;1.23;;;29.70;54.90;;;;;;5089515;28;20469;-81
2023/09/02 11:50:32;;;;;;;2.25;0.75;;;29.50;54.90;;;;;;5089424;28;20034;-81
2023/09/02 11:52:58;;;;;;;1.95;0.82;;;29.40;55.30;;;;;;5089392;28;20036;-81
2023/09/02 11:55:25;;;;;;;2.85;0.95;;;29.40;55.00;;;;;;5088065;28;20020;-81
2023/09/02 11:57:52;;;;;;;1.90;0.85;;;29.50;55.70;;;;;;5089300;28;20145;-79
2023/09/02 12:00:20;;;;;;;3.05;0.70;;;29.50;54.90;;;;;;5089101;28;20028;-79
2023/09/02 12:02:48;;;;;;;4.18;1.00;;;29.50;54.70;;;;;;5087742;28;20044;-79
2023/09/02 12:05:14;;;;;;;4.00;0.63;;;29.50;54.60;;;;;;5087941;28;20020;-79
2023/09/02 12:07:42;;;;;;;2.75;0.70;;;29.60;54.50;;;;;;5089290;28;20059;-78
2023/09/02 12:10:10;;;;;;;2.30;0.70;;;29.70;55.20;;;;;;5087915;28;20411;-79
2023/09/02 12:12:47;;;;;;;2.20;0.77;;;29.70;53.70;;;;;;5089065;28;20046;-80
2023/09/02 12:15:18;;;;;;;4.30;1.15;;;29.50;54.00;;;;;;5088951;28;20103;-79
2023/09/02 12:17:46;;;;;;;2.55;0.60;;;29.40;54.50;;;;;;5090799;28;20032;-77
2023/09/02 12:20:13;;;;;;;1.73;0.95;;;29.30;54.40;;;;;;5093069;28;20054;-80
2023/09/02 12:22:41;;;;;;;3.42;1.10;;;29.30;54.60;;;;;;5093118;28;20111;-79
2023/09/02 12:25:19;;;;;;;2.90;0.60;;;29.20;54.40;;;;;;5091515;28;20055;-79
2023/09/02 12:27:45;;;;;;;3.05;0.98;;;29.10;55.70;;;;;;5092019;28;20028;-79
2023/09/02 12:30:12;;;;;;;7.03;0.60;;;29.20;55.80;;;;;;5091670;28;20533;-80
2023/09/02 12:32:38;;;;;;;7.30;0.77;;;29.10;55.10;;;;;;5092932;28;20350;-79
2023/09/02 12:35:10;;;;;;;2.35;0.80;;;29.10;55.10;;;;;;5091422;28;20472;-79
2023/09/02 12:37:37;;;;;;;7.15;0.88;;;29.10;54.10;;;;;;5092626;28;20032;-78
2023/09/02 12:40:13;;;;;;;2.00;0.73;;;29.30;55.40;;;;;;5092480;28;20032;-79
2023/09/02 12:42:40;;;;;;;2.15;0.80;;;29.40;55.30;;;;;;5092636;28;20062;-80
2023/09/02 12:45:07;;;;;;;5.05;1.08;;;29.40;55.30;;;;;;5091304;28;20459;-79
2023/09/02 12:47:33;;;;;;;1.75;0.80;;;29.60;55.50;;;;;;5092606;28;20751;-78
2023/09/02 12:50:03;;;;;;;11.73;1.30;;;29.70;54.50;;;;;;5092686;28;20500;-79